sensor_id;sensor_type;location;lat;lon;timestamp;temperature;humidity
16347;DHT22;8283;48.504;13.734;2023-09-19T00:01:31;21.00;77.40
16347;DHT22;8283;48.504;13.734;2023-09-19T00:04:15;21.00;77.50
16347;DHT22;8283;48.504;13.734;2023-09-19T00:07:00;21.00;77.40
16347;DHT22;8283;48.504;13.734;2023-09-19T00:09:46;21.00;77.50
16347;DHT22;8283;48.504;13.734;2023-09-19T00:12:31;20.90;77.80
16347;DHT22;8283;48.504;13.734;2023-09-19T00:15:16;20.90;78.00
16347;DHT22;8283;48.504;13.734;2023-09-19T00:18:01;20.90;78.40
16347;DHT22;8283;48.504;13.734;2023-09-19T00:20:46;20.90;78.70
16347;DHT22;8283;48.504;13.734;2023-09-19T00:23:33;20.90;78.90
16347;DHT22;8283;48.504;13.734;2023-09-19T00:26:17;20.90;79.00
16347;DHT22;8283;48.504;13.734;2023-09-19T00:29:06;20.90;79.10
16347;DHT22;8283;48.504;13.734;2023-09-19T00:31:52;20.90;79.20
16347;DHT22;8283;48.504;13.734;2023-09-19T00:34:38;20.90;79.40
16347;DHT22;8283;48.504;13.734;2023-09-19T00:37:22;21.00;79.60
16347;DHT22;8283;48.504;13.734;2023-09-19T00:40:10;21.00;79.70
16347;DHT22;8283;48.504;13.734;2023-09-19T00:42:59;21.00;80.50
16347;DHT22;8283;48.504;13.734;2023-09-19T00:45:49;21.00;79.40
16347;DHT22;8283;48.504;13.734;2023-09-19T00:48:42;20.90;79.90
16347;DHT22;8283;48.504;13.734;2023-09-19T00:51:27;20.90;81.40
16347;DHT22;8283;48.504;13.734;2023-09-19T00:54:12;20.80;80.00
16347;DHT22;8283;48.504;13.734;2023-09-19T00:57:02;20.80;80.30
16347;DHT22;8283;48.504;13.734;2023-09-19T00:59:50;20.80;80.40
16347;DHT22;8283;48.504;13.734;2023-09-19T01:02:37;20.80;81.40
16347;DHT22;8283;48.504;13.734;2023-09-19T01:05:21;20.90;80.80
16347;DHT22;8283;48.504;13.734;2023-09-19T01:08:08;20.90;80.80
16347;DHT22;8283;48.504;13.734;2023-09-19T01:11:12;20.90;80.80
16347;DHT22;8283;48.504;13.734;2023-09-19T01:14:06;20.90;82.70
16347;DHT22;8283;48.504;13.734;2023-09-19T01:17:13;20.90;82.00
16347;DHT22;8283;48.504;13.734;2023-09-19T01:20:22;20.90;82.70
16347;DHT22;8283;48.504;13.734;2023-09-19T01:23:23;20.90;82.70
16347;DHT22;8283;48.504;13.734;2023-09-19T01:32:17;20.70;82.30
16347;DHT22;8283;48.504;13.734;2023-09-19T01:35:04;20.60;81.20
16347;DHT22;8283;48.504;13.734;2023-09-19T01:37:48;20.50;80.70
16347;DHT22;8283;48.504;13.734;2023-09-19T01:40:43;20.40;80.90
16347;DHT22;8283;48.504;13.734;2023-09-19T01:43:38;20.40;82.40
16347;DHT22;8283;48.504;13.734;2023-09-19T01:46:30;20.40;83.50
16347;DHT22;8283;48.504;13.734;2023-09-19T01:49:41;20.40;83.40
16347;DHT22;8283;48.504;13.734;2023-09-19T01:52:30;20.40;85.20
16347;DHT22;8283;48.504;13.734;2023-09-19T01:55:18;20.40;83.40
16347;DHT22;8283;48.504;13.734;2023-09-19T01:58:17;20.40;82.90
16347;DHT22;8283;48.504;13.734;2023-09-19T02:01:04;20.40;85.00
16347;DHT22;8283;48.504;13.734;2023-09-19T02:03:53;20.50;83.10
16347;DHT22;8283;48.504;13.734;2023-09-19T02:06:41;20.50;82.80
16347;DHT22;8283;48.504;13.734;2023-09-19T02:09:26;20.50;83.60
16347;DHT22;8283;48.504;13.734;2023-09-19T02:12:10;20.40;82.60
16347;DHT22;8283;48.504;13.734;2023-09-19T02:14:55;20.40;82.80
16347;DHT22;8283;48.504;13.734;2023-09-19T02:17:42;20.40;83.00
16347;DHT22;8283;48.504;13.734;2023-09-19T02:20:27;20.40;83.20
16347;DHT22;8283;48.504;13.734;2023-09-19T02:23:13;20.40;83.30
16347;DHT22;8283;48.504;13.734;2023-09-19T02:25:58;20.40;83.50
16347;DHT22;8283;48.504;13.734;2023-09-19T02:28:44;20.40;83.40
16347;DHT22;8283;48.504;13.734;2023-09-19T02:31:30;20.50;83.40
16347;DHT22;8283;48.504;13.734;2023-09-19T02:34:15;20.50;83.30
16347;DHT22;8283;48.504;13.734;2023-09-19T02:37:03;20.50;83.40
16347;DHT22;8283;48.504;13.734;2023-09-19T02:39:49;20.50;83.80
16347;DHT22;8283;48.504;13.734;2023-09-19T02:42:33;20.50;83.50
16347;DHT22;8283;48.504;13.734;2023-09-19T02:45:19;20.50;83.70
16347;DHT22;8283;48.504;13.734;2023-09-19T02:48:04;20.50;83.90
16347;DHT22;8283;48.504;13.734;2023-09-19T02:50:51;20.50;84.10
16347;DHT22;8283;48.504;13.734;2023-09-19T02:53:36;20.50;84.80
16347;DHT22;8283;48.504;13.734;2023-09-19T02:56:21;20.50;84.10
16347;DHT22;8283;48.504;13.734;2023-09-19T02:59:06;20.50;84.20
16347;DHT22;8283;48.504;13.734;2023-09-19T03:01:51;20.50;84.10
16347;DHT22;8283;48.504;13.734;2023-09-19T03:04:36;20.50;84.10
16347;DHT22;8283;48.504;13.734;2023-09-19T03:07:21;20.50;84.30
16347;DHT22;8283;48.504;13.734;2023-09-19T03:10:07;20.50;84.30
16347;DHT22;8283;48.504;13.734;2023-09-19T03:12:52;20.50;84.70
16347;DHT22;8283;48.504;13.734;2023-09-19T03:15:41;20.50;84.60
16347;DHT22;8283;48.504;13.734;2023-09-19T03:18:27;20.50;85.40
16347;DHT22;8283;48.504;13.734;2023-09-19T03:21:12;20.50;84.50
16347;DHT22;8283;48.504;13.734;2023-09-19T03:23:57;20.50;84.50
16347;DHT22;8283;48.504;13.734;2023-09-19T03:26:42;20.50;84.50
16347;DHT22;8283;48.504;13.734;2023-09-19T03:29:26;20.50;84.40
16347;DHT22;8283;48.504;13.734;2023-09-19T03:32:11;20.50;84.40
16347;DHT22;8283;48.504;13.734;2023-09-19T03:34:55;20.50;84.40
16347;DHT22;8283;48.504;13.734;2023-09-19T03:37:41;20.50;84.40
16347;DHT22;8283;48.504;13.734;2023-09-19T03:40:26;20.50;84.60
16347;DHT22;8283;48.504;13.734;2023-09-19T03:43:11;20.50;84.60
16347;DHT22;8283;48.504;13.734;2023-09-19T03:45:56;20.50;84.60
16347;DHT22;8283;48.504;13.734;2023-09-19T03:48:41;20.50;84.70
16347;DHT22;8283;48.504;13.734;2023-09-19T03:51:27;20.50;84.70
16347;DHT22;8283;48.504;13.734;2023-09-19T03:54:12;20.40;84.80
16347;DHT22;8283;48.504;13.734;2023-09-19T03:56:56;20.40;85.00
16347;DHT22;8283;48.504;13.734;2023-09-19T03:59:42;20.50;85.10
16347;DHT22;8283;48.504;13.734;2023-09-19T04:02:29;20.40;85.10
16347;DHT22;8283;48.504;13.734;2023-09-19T04:05:17;20.40;85.20
16347;DHT22;8283;48.504;13.734;2023-09-19T04:08:02;20.50;85.20
16347;DHT22;8283;48.504;13.734;2023-09-19T04:10:46;20.40;85.30
16347;DHT22;8283;48.504;13.734;2023-09-19T04:13:30;20.40;85.20
16347;DHT22;8283;48.504;13.734;2023-09-19T04:16:15;20.50;85.30
16347;DHT22;8283;48.504;13.734;2023-09-19T04:18:59;20.40;85.20
16347;DHT22;8283;48.504;13.734;2023-09-19T04:21:44;20.40;85.10
16347;DHT22;8283;48.504;13.734;2023-09-19T04:24:29;20.40;85.10
16347;DHT22;8283;48.504;13.734;2023-09-19T04:27:14;20.40;85.30
16347;DHT22;8283;48.504;13.734;2023-09-19T04:29:58;20.30;85.20
16347;DHT22;8283;48.504;13.734;2023-09-19T04:32:43;20.30;85.20
16347;DHT22;8283;48.504;13.734;2023-09-19T04:35:27;20.30;85.20
16347;DHT22;8283;48.504;13.734;2023-09-19T04:38:13;20.30;85.30
16347;DHT22;8283;48.504;13.734;2023-09-19T04:40:58;20.30;85.30
16347;DHT22;8283;48.504;13.734;2023-09-19T04:43:43;20.30;85.40
16347;DHT22;8283;48.504;13.734;2023-09-19T04:46:27;20.30;85.40
16347;DHT22;8283;48.504;13.734;2023-09-19T04:49:12;20.20;85.40
16347;DHT22;8283;48.504;13.734;2023-09-19T04:51:57;20.20;85.50
16347;DHT22;8283;48.504;13.734;2023-09-19T04:54:41;20.20;85.50
16347;DHT22;8283;48.504;13.734;2023-09-19T04:57:25;20.20;85.60
16347;DHT22;8283;48.504;13.734;2023-09-19T05:00:11;20.20;85.70
16347;DHT22;8283;48.504;13.734;2023-09-19T05:02:57;20.20;85.80
16347;DHT22;8283;48.504;13.734;2023-09-19T05:05:41;20.20;85.90
16347;DHT22;8283;48.504;13.734;2023-09-19T05:08:26;20.20;85.80
16347;DHT22;8283;48.504;13.734;2023-09-19T05:11:12;20.20;85.80
16347;DHT22;8283;48.504;13.734;2023-09-19T05:13:56;20.20;85.80
16347;DHT22;8283;48.504;13.734;2023-09-19T05:16:41;20.20;85.80
16347;DHT22;8283;48.504;13.734;2023-09-19T05:19:25;20.20;85.90
16347;DHT22;8283;48.504;13.734;2023-09-19T05:22:09;20.10;85.90
16347;DHT22;8283;48.504;13.734;2023-09-19T05:24:54;20.20;85.80
16347;DHT22;8283;48.504;13.734;2023-09-19T05:27:38;20.10;85.70
16347;DHT22;8283;48.504;13.734;2023-09-19T05:30:23;20.10;85.90
16347;DHT22;8283;48.504;13.734;2023-09-19T05:33:07;20.10;85.80
16347;DHT22;8283;48.504;13.734;2023-09-19T05:35:52;20.10;86.10
16347;DHT22;8283;48.504;13.734;2023-09-19T05:38:38;20.00;86.00
16347;DHT22;8283;48.504;13.734;2023-09-19T05:41:25;20.00;86.10
16347;DHT22;8283;48.504;13.734;2023-09-19T05:44:09;20.00;86.30
16347;DHT22;8283;48.504;13.734;2023-09-19T05:46:53;20.00;86.50
16347;DHT22;8283;48.504;13.734;2023-09-19T05:49:41;20.00;86.60
16347;DHT22;8283;48.504;13.734;2023-09-19T05:52:25;20.00;86.80
16347;DHT22;8283;48.504;13.734;2023-09-19T05:55:10;19.90;86.90
16347;DHT22;8283;48.504;13.734;2023-09-19T05:57:54;20.00;87.30
16347;DHT22;8283;48.504;13.734;2023-09-19T06:00:39;20.10;87.40
16347;DHT22;8283;48.504;13.734;2023-09-19T06:03:25;20.10;87.50
16347;DHT22;8283;48.504;13.734;2023-09-19T06:06:10;20.10;87.60
16347;DHT22;8283;48.504;13.734;2023-09-19T06:08:54;20.10;87.60
16347;DHT22;8283;48.504;13.734;2023-09-19T06:11:40;20.20;87.70
16347;DHT22;8283;48.504;13.734;2023-09-19T06:14:25;20.20;87.60
16347;DHT22;8283;48.504;13.734;2023-09-19T06:17:09;20.20;87.50
16347;DHT22;8283;48.504;13.734;2023-09-19T06:19:54;20.20;87.60
16347;DHT22;8283;48.504;13.734;2023-09-19T06:22:40;20.20;87.70
16347;DHT22;8283;48.504;13.734;2023-09-19T06:25:25;20.30;87.90
16347;DHT22;8283;48.504;13.734;2023-09-19T06:28:10;20.30;87.90
16347;DHT22;8283;48.504;13.734;2023-09-19T06:30:56;20.30;88.00
16347;DHT22;8283;48.504;13.734;2023-09-19T06:33:41;20.30;88.00
16347;DHT22;8283;48.504;13.734;2023-09-19T06:36:27;20.40;88.10
16347;DHT22;8283;48.504;13.734;2023-09-19T06:39:12;20.40;88.20
16347;DHT22;8283;48.504;13.734;2023-09-19T06:41:56;20.40;88.40
16347;DHT22;8283;48.504;13.734;2023-09-19T06:44:41;20.50;88.80
16347;DHT22;8283;48.504;13.734;2023-09-19T06:47:25;20.50;89.00
16347;DHT22;8283;48.504;13.734;2023-09-19T06:50:09;20.60;89.20
16347;DHT22;8283;48.504;13.734;2023-09-19T06:52:57;20.70;89.40
16347;DHT22;8283;48.504;13.734;2023-09-19T06:55:43;20.70;89.50
16347;DHT22;8283;48.504;13.734;2023-09-19T06:58:28;20.80;89.70
16347;DHT22;8283;48.504;13.734;2023-09-19T07:01:12;21.00;90.00
16347;DHT22;8283;48.504;13.734;2023-09-19T07:03:59;21.00;89.70
16347;DHT22;8283;48.504;13.734;2023-09-19T07:06:44;21.10;89.60
16347;DHT22;8283;48.504;13.734;2023-09-19T07:09:30;21.20;89.70
16347;DHT22;8283;48.504;13.734;2023-09-19T07:12:14;21.30;89.80
16347;DHT22;8283;48.504;13.734;2023-09-19T07:14:59;21.30;90.00
16347;DHT22;8283;48.504;13.734;2023-09-19T07:17:43;21.40;89.90
16347;DHT22;8283;48.504;13.734;2023-09-19T07:20:30;21.60;90.00
16347;DHT22;8283;48.504;13.734;2023-09-19T07:26:02;21.80;89.40
16347;DHT22;8283;48.504;13.734;2023-09-19T07:28:49;21.80;88.80
16347;DHT22;8283;48.504;13.734;2023-09-19T07:31:34;21.80;88.40
16347;DHT22;8283;48.504;13.734;2023-09-19T07:34:19;21.90;88.00
16347;DHT22;8283;48.504;13.734;2023-09-19T07:37:05;21.90;88.20
16347;DHT22;8283;48.504;13.734;2023-09-19T07:39:49;21.90;88.40
16347;DHT22;8283;48.504;13.734;2023-09-19T07:42:35;22.00;88.50
16347;DHT22;8283;48.504;13.734;2023-09-19T07:45:20;22.00;88.40
16347;DHT22;8283;48.504;13.734;2023-09-19T07:48:05;22.10;88.10
16347;DHT22;8283;48.504;13.734;2023-09-19T07:50:50;22.10;87.80
16347;DHT22;8283;48.504;13.734;2023-09-19T07:53:35;22.20;87.80
16347;DHT22;8283;48.504;13.734;2023-09-19T07:56:19;22.20;87.30
16347;DHT22;8283;48.504;13.734;2023-09-19T07:59:04;22.30;87.30
16347;DHT22;8283;48.504;13.734;2023-09-19T08:01:48;22.30;87.50
16347;DHT22;8283;48.504;13.734;2023-09-19T08:04:33;22.40;87.70
16347;DHT22;8283;48.504;13.734;2023-09-19T08:07:17;22.40;87.60
16347;DHT22;8283;48.504;13.734;2023-09-19T08:10:04;22.50;87.50
16347;DHT22;8283;48.504;13.734;2023-09-19T08:12:49;22.60;87.50
16347;DHT22;8283;48.504;13.734;2023-09-19T08:15:43;22.60;87.00
16347;DHT22;8283;48.504;13.734;2023-09-19T08:18:28;22.60;86.30
16347;DHT22;8283;48.504;13.734;2023-09-19T08:21:14;22.50;86.10
16347;DHT22;8283;48.504;13.734;2023-09-19T08:23:58;22.60;86.20
16347;DHT22;8283;48.504;13.734;2023-09-19T08:26:42;22.60;86.30
16347;DHT22;8283;48.504;13.734;2023-09-19T08:29:29;22.70;86.60
16347;DHT22;8283;48.504;13.734;2023-09-19T08:32:13;22.70;86.70
16347;DHT22;8283;48.504;13.734;2023-09-19T08:34:58;22.80;86.90
16347;DHT22;8283;48.504;13.734;2023-09-19T08:37:43;22.80;87.20
16347;DHT22;8283;48.504;13.734;2023-09-19T08:40:30;23.00;87.40
16347;DHT22;8283;48.504;13.734;2023-09-19T08:43:21;23.10;86.70
16347;DHT22;8283;48.504;13.734;2023-09-19T08:46:14;23.20;85.80
16347;DHT22;8283;48.504;13.734;2023-09-19T08:49:08;23.20;86.00
16347;DHT22;8283;48.504;13.734;2023-09-19T08:52:03;23.30;85.10
16347;DHT22;8283;48.504;13.734;2023-09-19T08:54:52;23.30;85.20
16347;DHT22;8283;48.504;13.734;2023-09-19T08:57:41;23.40;85.20
16347;DHT22;8283;48.504;13.734;2023-09-19T09:00:28;23.40;85.10
16347;DHT22;8283;48.504;13.734;2023-09-19T09:03:14;23.40;84.60
16347;DHT22;8283;48.504;13.734;2023-09-19T09:06:01;23.40;84.20
16347;DHT22;8283;48.504;13.734;2023-09-19T09:08:46;23.40;83.60
16347;DHT22;8283;48.504;13.734;2023-09-19T09:11:33;23.30;83.20
16347;DHT22;8283;48.504;13.734;2023-09-19T09:14:19;23.30;82.80
16347;DHT22;8283;48.504;13.734;2023-09-19T09:17:05;23.30;82.80
16347;DHT22;8283;48.504;13.734;2023-09-19T09:19:53;23.20;82.80
16347;DHT22;8283;48.504;13.734;2023-09-19T09:22:37;23.20;83.30
16347;DHT22;8283;48.504;13.734;2023-09-19T09:25:47;23.30;83.70
16347;DHT22;8283;48.504;13.734;2023-09-19T09:28:34;23.40;83.10
16347;DHT22;8283;48.504;13.734;2023-09-19T09:31:24;23.40;83.40
16347;DHT22;8283;48.504;13.734;2023-09-19T09:34:08;23.50;83.40
16347;DHT22;8283;48.504;13.734;2023-09-19T09:36:53;23.40;83.00
16347;DHT22;8283;48.504;13.734;2023-09-19T09:39:38;23.40;82.70
16347;DHT22;8283;48.504;13.734;2023-09-19T09:42:35;23.30;82.60
16347;DHT22;8283;48.504;13.734;2023-09-19T09:45:23;23.30;83.10
16347;DHT22;8283;48.504;13.734;2023-09-19T09:48:24;23.20;82.90
16347;DHT22;8283;48.504;13.734;2023-09-19T09:51:15;23.10;83.90
16347;DHT22;8283;48.504;13.734;2023-09-19T09:54:18;23.10;83.30
16347;DHT22;8283;48.504;13.734;2023-09-19T09:57:08;23.00;84.20
16347;DHT22;8283;48.504;13.734;2023-09-19T10:00:02;23.00;83.80
16347;DHT22;8283;48.504;13.734;2023-09-19T10:02:56;22.90;84.10
16347;DHT22;8283;48.504;13.734;2023-09-19T10:05:44;22.90;84.30
16347;DHT22;8283;48.504;13.734;2023-09-19T10:08:29;22.90;86.50
16347;DHT22;8283;48.504;13.734;2023-09-19T10:11:16;23.00;88.00
16347;DHT22;8283;48.504;13.734;2023-09-19T10:14:01;23.20;89.70
16347;DHT22;8283;48.504;13.734;2023-09-19T10:16:53;23.50;90.30
16347;DHT22;8283;48.504;13.734;2023-09-19T10:19:56;23.80;90.80
16347;DHT22;8283;48.504;13.734;2023-09-19T10:22:42;24.30;90.00
16347;DHT22;8283;48.504;13.734;2023-09-19T10:25:28;24.70;88.90
16347;DHT22;8283;48.504;13.734;2023-09-19T10:28:16;24.90;86.80
16347;DHT22;8283;48.504;13.734;2023-09-19T10:31:06;25.00;84.50
16347;DHT22;8283;48.504;13.734;2023-09-19T10:33:55;25.00;83.40
16347;DHT22;8283;48.504;13.734;2023-09-19T10:36:45;25.00;82.60
16347;DHT22;8283;48.504;13.734;2023-09-19T10:39:32;24.90;81.20
16347;DHT22;8283;48.504;13.734;2023-09-19T10:42:19;24.90;81.40
16347;DHT22;8283;48.504;13.734;2023-09-19T10:45:06;24.70;81.30
16347;DHT22;8283;48.504;13.734;2023-09-19T10:47:57;24.70;81.70
16347;DHT22;8283;48.504;13.734;2023-09-19T10:50:50;24.60;82.10
16347;DHT22;8283;48.504;13.734;2023-09-19T10:53:55;24.60;82.30
16347;DHT22;8283;48.504;13.734;2023-09-19T10:56:49;24.60;81.60
16347;DHT22;8283;48.504;13.734;2023-09-19T10:59:35;24.60;81.90
16347;DHT22;8283;48.504;13.734;2023-09-19T11:02:19;24.60;82.10
16347;DHT22;8283;48.504;13.734;2023-09-19T11:05:12;24.70;81.80
16347;DHT22;8283;48.504;13.734;2023-09-19T11:07:58;24.60;81.50
16347;DHT22;8283;48.504;13.734;2023-09-19T11:10:45;24.60;81.10
16347;DHT22;8283;48.504;13.734;2023-09-19T11:13:31;24.50;81.20
16347;DHT22;8283;48.504;13.734;2023-09-19T11:16:18;24.60;81.60
16347;DHT22;8283;48.504;13.734;2023-09-19T11:19:03;24.50;81.70
16347;DHT22;8283;48.504;13.734;2023-09-19T11:21:52;24.40;81.90
16347;DHT22;8283;48.504;13.734;2023-09-19T11:24:38;24.50;82.10
16347;DHT22;8283;48.504;13.734;2023-09-19T11:27:23;24.40;81.80
16347;DHT22;8283;48.504;13.734;2023-09-19T11:30:26;24.40;81.90
16347;DHT22;8283;48.504;13.734;2023-09-19T11:36:36;24.50;84.10
16347;DHT22;8283;48.504;13.734;2023-09-19T11:39:27;24.80;84.00
16347;DHT22;8283;48.504;13.734;2023-09-19T11:42:46;25.00;83.30
16347;DHT22;8283;48.504;13.734;2023-09-19T11:48:34;25.40;83.60
16347;DHT22;8283;48.504;13.734;2023-09-19T11:51:23;25.80;84.30
16347;DHT22;8283;48.504;13.734;2023-09-19T11:54:12;26.10;82.00
16347;DHT22;8283;48.504;13.734;2023-09-19T11:57:03;26.40;83.10
16347;DHT22;8283;48.504;13.734;2023-09-19T11:59:48;26.80;82.10
16347;DHT22;8283;48.504;13.734;2023-09-19T12:02:39;27.10;82.00
16347;DHT22;8283;48.504;13.734;2023-09-19T12:05:30;27.40;79.50
16347;DHT22;8283;48.504;13.734;2023-09-19T12:08:15;27.80;78.00
16347;DHT22;8283;48.504;13.734;2023-09-19T12:11:01;28.10;79.80
16347;DHT22;8283;48.504;13.734;2023-09-19T12:13:46;28.40;78.00
16347;DHT22;8283;48.504;13.734;2023-09-19T12:16:33;28.60;77.30
16347;DHT22;8283;48.504;13.734;2023-09-19T12:19:19;28.80;76.80
16347;DHT22;8283;48.504;13.734;2023-09-19T12:22:05;28.90;75.40
16347;DHT22;8283;48.504;13.734;2023-09-19T12:24:49;28.90;74.80
16347;DHT22;8283;48.504;13.734;2023-09-19T12:27:45;28.80;74.20
16347;DHT22;8283;48.504;13.734;2023-09-19T12:30:30;28.70;72.70
16347;DHT22;8283;48.504;13.734;2023-09-19T12:33:20;28.40;72.10
16347;DHT22;8283;48.504;13.734;2023-09-19T12:36:22;28.00;69.20
16347;DHT22;8283;48.504;13.734;2023-09-19T12:39:23;27.30;68.00
16347;DHT22;8283;48.504;13.734;2023-09-19T12:42:10;26.40;67.90
16347;DHT22;8283;48.504;13.734;2023-09-19T12:44:55;25.70;68.20
16347;DHT22;8283;48.504;13.734;2023-09-19T12:51:11;24.30;70.00
16347;DHT22;8283;48.504;13.734;2023-09-19T12:53:57;23.70;70.80
16347;DHT22;8283;48.504;13.734;2023-09-19T12:56:45;23.20;71.50
16347;DHT22;8283;48.504;13.734;2023-09-19T12:59:31;22.80;72.60
16347;DHT22;8283;48.504;13.734;2023-09-19T13:02:17;22.50;73.00
16347;DHT22;8283;48.504;13.734;2023-09-19T13:05:04;22.30;73.80
16347;DHT22;8283;48.504;13.734;2023-09-19T13:07:51;22.10;74.30
16347;DHT22;8283;48.504;13.734;2023-09-19T13:11:10;21.90;74.90
16347;DHT22;8283;48.504;13.734;2023-09-19T13:14:24;21.80;76.30
16347;DHT22;8283;48.504;13.734;2023-09-19T13:17:11;21.70;76.10
16347;DHT22;8283;48.504;13.734;2023-09-19T13:20:03;21.60;76.10
16347;DHT22;8283;48.504;13.734;2023-09-19T13:22:51;21.50;76.50
16347;DHT22;8283;48.504;13.734;2023-09-19T13:25:42;21.50;76.70
16347;DHT22;8283;48.504;13.734;2023-09-19T13:28:26;21.50;77.30
16347;DHT22;8283;48.504;13.734;2023-09-19T13:31:12;21.60;77.90
16347;DHT22;8283;48.504;13.734;2023-09-19T13:33:58;21.60;78.00
16347;DHT22;8283;48.504;13.734;2023-09-19T13:36:43;21.70;78.50
16347;DHT22;8283;48.504;13.734;2023-09-19T13:39:27;21.70;79.20
16347;DHT22;8283;48.504;13.734;2023-09-19T13:42:11;21.90;80.40
16347;DHT22;8283;48.504;13.734;2023-09-19T13:44:56;22.00;81.00
16347;DHT22;8283;48.504;13.734;2023-09-19T13:47:41;22.20;81.30
16347;DHT22;8283;48.504;13.734;2023-09-19T13:50:26;22.40;81.80
16347;DHT22;8283;48.504;13.734;2023-09-19T13:53:13;22.70;82.10
16347;DHT22;8283;48.504;13.734;2023-09-19T13:55:57;22.90;82.30
16347;DHT22;8283;48.504;13.734;2023-09-19T13:58:42;23.20;82.20
16347;DHT22;8283;48.504;13.734;2023-09-19T14:01:26;23.50;82.10
16347;DHT22;8283;48.504;13.734;2023-09-19T14:04:11;23.80;81.90
16347;DHT22;8283;48.504;13.734;2023-09-19T14:06:55;24.10;80.90
16347;DHT22;8283;48.504;13.734;2023-09-19T14:09:41;24.30;80.20
16347;DHT22;8283;48.504;13.734;2023-09-19T14:12:25;24.60;79.80
16347;DHT22;8283;48.504;13.734;2023-09-19T14:15:10;24.80;79.90
16347;DHT22;8283;48.504;13.734;2023-09-19T14:17:58;25.00;79.10
16347;DHT22;8283;48.504;13.734;2023-09-19T14:20:43;25.30;77.80
16347;DHT22;8283;48.504;13.734;2023-09-19T14:23:27;25.50;78.50
16347;DHT22;8283;48.504;13.734;2023-09-19T14:26:12;25.70;78.40
16347;DHT22;8283;48.504;13.734;2023-09-19T14:28:56;25.80;78.30
16347;DHT22;8283;48.504;13.734;2023-09-19T14:31:41;26.00;78.20
16347;DHT22;8283;48.504;13.734;2023-09-19T14:34:26;26.10;77.30
16347;DHT22;8283;48.504;13.734;2023-09-19T14:37:11;26.20;76.50
16347;DHT22;8283;48.504;13.734;2023-09-19T14:39:55;26.20;75.70
16347;DHT22;8283;48.504;13.734;2023-09-19T14:42:40;26.20;75.30
16347;DHT22;8283;48.504;13.734;2023-09-19T14:45:24;26.10;75.30
16347;DHT22;8283;48.504;13.734;2023-09-19T14:48:10;26.10;75.20
16347;DHT22;8283;48.504;13.734;2023-09-19T14:50:54;26.10;75.10
16347;DHT22;8283;48.504;13.734;2023-09-19T14:53:40;26.00;74.80
16347;DHT22;8283;48.504;13.734;2023-09-19T14:56:25;26.00;74.70
16347;DHT22;8283;48.504;13.734;2023-09-19T14:59:10;26.00;74.50
16347;DHT22;8283;48.504;13.734;2023-09-19T15:01:54;26.00;74.40
16347;DHT22;8283;48.504;13.734;2023-09-19T15:04:39;25.90;74.00
16347;DHT22;8283;48.504;13.734;2023-09-19T15:07:24;25.80;73.80
16347;DHT22;8283;48.504;13.734;2023-09-19T15:10:11;25.80;73.70
16347;DHT22;8283;48.504;13.734;2023-09-19T15:12:57;25.70;73.50
16347;DHT22;8283;48.504;13.734;2023-09-19T15:15:41;25.60;73.20
16347;DHT22;8283;48.504;13.734;2023-09-19T15:18:28;25.40;73.10
16347;DHT22;8283;48.504;13.734;2023-09-19T15:21:14;25.30;73.00
16347;DHT22;8283;48.504;13.734;2023-09-19T15:23:59;25.10;72.80
16347;DHT22;8283;48.504;13.734;2023-09-19T15:26:44;24.90;72.80
16347;DHT22;8283;48.504;13.734;2023-09-19T15:29:29;24.70;72.80
16347;DHT22;8283;48.504;13.734;2023-09-19T15:32:13;24.50;72.80
16347;DHT22;8283;48.504;13.734;2023-09-19T15:34:58;24.30;72.90
16347;DHT22;8283;48.504;13.734;2023-09-19T15:37:42;24.20;73.00
16347;DHT22;8283;48.504;13.734;2023-09-19T15:40:27;23.90;73.10
16347;DHT22;8283;48.504;13.734;2023-09-19T15:43:11;23.70;73.40
16347;DHT22;8283;48.504;13.734;2023-09-19T15:45:56;23.60;73.60
16347;DHT22;8283;48.504;13.734;2023-09-19T15:48:41;23.50;73.90
16347;DHT22;8283;48.504;13.734;2023-09-19T15:51:26;23.40;74.10
16347;DHT22;8283;48.504;13.734;2023-09-19T15:54:12;23.20;73.80
16347;DHT22;8283;48.504;13.734;2023-09-19T15:56:59;23.10;74.10
16347;DHT22;8283;48.504;13.734;2023-09-19T15:59:43;22.90;74.50
16347;DHT22;8283;48.504;13.734;2023-09-19T16:02:28;22.70;74.60
16347;DHT22;8283;48.504;13.734;2023-09-19T16:05:13;22.70;74.70
16347;DHT22;8283;48.504;13.734;2023-09-19T16:07:57;22.50;75.00
16347;DHT22;8283;48.504;13.734;2023-09-19T16:10:41;22.40;75.10
16347;DHT22;8283;48.504;13.734;2023-09-19T16:13:26;22.40;75.30
16347;DHT22;8283;48.504;13.734;2023-09-19T16:16:12;22.20;75.50
16347;DHT22;8283;48.504;13.734;2023-09-19T16:19:00;22.10;75.70
16347;DHT22;8283;48.504;13.734;2023-09-19T16:21:47;22.10;76.00
16347;DHT22;8283;48.504;13.734;2023-09-19T16:24:31;22.00;75.80
16347;DHT22;8283;48.504;13.734;2023-09-19T16:27:15;21.90;76.00
16347;DHT22;8283;48.504;13.734;2023-09-19T16:30:05;21.80;75.90
16347;DHT22;8283;48.504;13.734;2023-09-19T16:32:53;21.70;76.20
16347;DHT22;8283;48.504;13.734;2023-09-19T16:35:38;21.60;76.40
16347;DHT22;8283;48.504;13.734;2023-09-19T16:38:24;21.50;76.80
16347;DHT22;8283;48.504;13.734;2023-09-19T16:41:08;21.40;77.10
16347;DHT22;8283;48.504;13.734;2023-09-19T16:43:53;21.40;77.10
16347;DHT22;8283;48.504;13.734;2023-09-19T16:46:37;21.40;77.20
16347;DHT22;8283;48.504;13.734;2023-09-19T16:49:22;21.30;77.20
16347;DHT22;8283;48.504;13.734;2023-09-19T16:52:06;21.30;77.30
16347;DHT22;8283;48.504;13.734;2023-09-19T16:54:51;21.20;77.30
16347;DHT22;8283;48.504;13.734;2023-09-19T16:57:35;21.10;77.20
16347;DHT22;8283;48.504;13.734;2023-09-19T17:00:20;21.00;77.30
16347;DHT22;8283;48.504;13.734;2023-09-19T17:03:05;21.00;77.60
16347;DHT22;8283;48.504;13.734;2023-09-19T17:05:49;20.90;77.70
16347;DHT22;8283;48.504;13.734;2023-09-19T17:08:33;20.80;77.80
16347;DHT22;8283;48.504;13.734;2023-09-19T17:11:18;20.80;77.90
16347;DHT22;8283;48.504;13.734;2023-09-19T17:14:02;20.70;78.00
16347;DHT22;8283;48.504;13.734;2023-09-19T17:16:47;20.70;78.00
16347;DHT22;8283;48.504;13.734;2023-09-19T17:19:33;20.60;78.00
16347;DHT22;8283;48.504;13.734;2023-09-19T17:22:18;20.60;78.20
16347;DHT22;8283;48.504;13.734;2023-09-19T17:25:02;20.50;78.20
16347;DHT22;8283;48.504;13.734;2023-09-19T17:27:47;20.40;78.30
16347;DHT22;8283;48.504;13.734;2023-09-19T17:30:31;20.40;78.40
16347;DHT22;8283;48.504;13.734;2023-09-19T17:33:16;20.30;78.30
16347;DHT22;8283;48.504;13.734;2023-09-19T17:36:10;20.30;78.40
16347;DHT22;8283;48.504;13.734;2023-09-19T17:38:56;20.20;79.50
16347;DHT22;8283;48.504;13.734;2023-09-19T17:41:41;20.20;78.80
16347;DHT22;8283;48.504;13.734;2023-09-19T17:44:25;20.10;78.70
16347;DHT22;8283;48.504;13.734;2023-09-19T17:47:10;20.10;78.90
16347;DHT22;8283;48.504;13.734;2023-09-19T17:49:54;20.00;79.00
16347;DHT22;8283;48.504;13.734;2023-09-19T17:52:41;19.90;79.10